sensor_id;sensor_type;location;lat;lon;timestamp;pressure;altitude;pressure_sealevel;temperature;humidity
17230;BME280;8731;50.364;8.958;2023-02-21T00:01:17;100568.28;;;7.67;85.78
17230;BME280;8731;50.364;8.958;2023-02-21T00:05:57;100572.88;;;7.78;85.15
17230;BME280;8731;50.364;8.958;2023-02-21T00:10:37;100567.75;;;7.85;84.74
17230;BME280;8731;50.364;8.958;2023-02-21T00:15:16;100565.41;;;7.87;84.33
17230;BME280;8731;50.364;8.958;2023-02-21T00:19:57;100571.38;;;7.87;84.43
17230;BME280;8731;50.364;8.958;2023-02-21T00:24:37;100570.16;;;7.77;85.73
17230;BME280;8731;50.364;8.958;2023-02-21T00:29:17;100563.09;;;7.81;85.65
17230;BME280;8731;50.364;8.958;2023-02-21T00:33:57;100566.78;;;7.92;84.58
17230;BME280;8731;50.364;8.958;2023-02-21T00:38:38;100560.97;;;7.93;84.79
17230;BME280;8731;50.364;8.958;2023-02-21T00:43:18;100559.59;;;7.88;86.65
17230;BME280;8731;50.364;8.958;2023-02-21T00:47:58;100556.72;;;8.00;85.23
17230;BME280;8731;50.364;8.958;2023-02-21T00:52:38;100550.88;;;8.09;84.55
17230;BME280;8731;50.364;8.958;2023-02-21T00:57:19;100552.28;;;8.14;84.86
17230;BME280;8731;50.364;8.958;2023-02-21T01:01:59;100538.84;;;8.15;84.90
17230;BME280;8731;50.364;8.958;2023-02-21T01:06:39;100542.28;;;8.15;85.46
17230;BME280;8731;50.364;8.958;2023-02-21T01:11:20;100533.03;;;8.16;86.09
17230;BME280;8731;50.364;8.958;2023-02-21T01:16:01;100541.13;;;8.20;85.72
17230;BME280;8731;50.364;8.958;2023-02-21T01:20:41;100532.94;;;8.23;85.46
17230;BME280;8731;50.364;8.958;2023-02-21T01:25:21;100532.91;;;8.30;85.55
17230;BME280;8731;50.364;8.958;2023-02-21T01:30:01;100534.16;;;8.34;86.13
17230;BME280;8731;50.364;8.958;2023-02-21T01:34:42;100530.53;;;8.31;86.67
17230;BME280;8731;50.364;8.958;2023-02-21T01:39:23;100534.81;;;8.40;86.02
17230;BME280;8731;50.364;8.958;2023-02-21T01:44:04;100528.41;;;8.43;85.70
17230;BME280;8731;50.364;8.958;2023-02-21T01:48:48;100532.44;;;8.41;86.89
17230;BME280;8731;50.364;8.958;2023-02-21T01:53:32;100532.16;;;8.47;86.14
17230;BME280;8731;50.364;8.958;2023-02-21T01:58:12;100527.66;;;8.44;86.81
17230;BME280;8731;50.364;8.958;2023-02-21T02:02:56;100544.69;;;8.29;88.41
17230;BME280;8731;50.364;8.958;2023-02-21T02:07:37;100538.50;;;8.27;88.39
17230;BME280;8731;50.364;8.958;2023-02-21T02:12:33;100542.78;;;8.20;88.44
17230;BME280;8731;50.364;8.958;2023-02-21T02:17:16;100529.78;;;8.32;87.37
17230;BME280;8731;50.364;8.958;2023-02-21T02:27:16;100526.28;;;8.39;86.75
17230;BME280;8731;50.364;8.958;2023-02-21T02:32:13;100525.81;;;8.27;87.87
17230;BME280;8731;50.364;8.958;2023-02-21T02:37:01;100520.91;;;8.36;87.37
17230;BME280;8731;50.364;8.958;2023-02-21T02:41:37;100525.56;;;8.40;87.09
17230;BME280;8731;50.364;8.958;2023-02-21T02:46:12;100515.09;;;8.37;87.30
17230;BME280;8731;50.364;8.958;2023-02-21T02:50:40;100513.59;;;8.39;87.34
17230;BME280;8731;50.364;8.958;2023-02-21T02:55:23;100513.94;;;8.42;87.03
17230;BME280;8731;50.364;8.958;2023-02-21T02:59:52;100514.97;;;8.44;87.02
17230;BME280;8731;50.364;8.958;2023-02-21T03:04:30;100508.84;;;8.42;87.00
17230;BME280;8731;50.364;8.958;2023-02-21T03:09:08;100512.44;;;8.44;87.17
17230;BME280;8731;50.364;8.958;2023-02-21T03:13:41;100507.84;;;8.49;87.16
17230;BME280;8731;50.364;8.958;2023-02-21T03:18:13;100496.97;;;8.50;87.12
17230;BME280;8731;50.364;8.958;2023-02-21T03:22:41;100500.09;;;8.47;86.72
17230;BME280;8731;50.364;8.958;2023-02-21T03:27:06;100508.75;;;8.49;86.49
17230;BME280;8731;50.364;8.958;2023-02-21T03:31:36;100496.31;;;8.44;87.04
17230;BME280;8731;50.364;8.958;2023-02-21T03:36:04;100490.78;;;8.39;87.06
17230;BME280;8731;50.364;8.958;2023-02-21T03:40:31;100492.56;;;8.40;86.86
17230;BME280;8731;50.364;8.958;2023-02-21T03:44:56;100488.22;;;8.39;86.31
17230;BME280;8731;50.364;8.958;2023-02-21T03:49:20;100482.69;;;8.35;86.31
17230;BME280;8731;50.364;8.958;2023-02-21T03:53:43;100485.28;;;8.12;86.82
17230;BME280;8731;50.364;8.958;2023-02-21T03:58:06;100502.69;;;7.93;87.75
17230;BME280;8731;50.364;8.958;2023-02-21T04:02:30;100504.31;;;7.92;87.52
17230;BME280;8731;50.364;8.958;2023-02-21T04:06:54;100506.28;;;7.95;86.85
17230;BME280;8731;50.364;8.958;2023-02-21T04:11:17;100508.81;;;7.95;87.22
17230;BME280;8731;50.364;8.958;2023-02-21T04:15:41;100510.44;;;7.94;87.07
17230;BME280;8731;50.364;8.958;2023-02-21T04:20:04;100506.84;;;7.92;87.06
17230;BME280;8731;50.364;8.958;2023-02-21T04:24:33;100515.50;;;7.94;87.39
17230;BME280;8731;50.364;8.958;2023-02-21T04:28:55;100513.72;;;7.93;87.27
17230;BME280;8731;50.364;8.958;2023-02-21T04:33:18;100515.19;;;7.91;87.41
17230;BME280;8731;50.364;8.958;2023-02-21T04:37:40;100510.44;;;7.94;87.72
17230;BME280;8731;50.364;8.958;2023-02-21T04:42:05;100518.22;;;7.96;87.79
17230;BME280;8731;50.364;8.958;2023-02-21T04:46:28;100514.03;;;7.96;87.92
17230;BME280;8731;50.364;8.958;2023-02-21T04:50:51;100516.00;;;7.99;87.60
17230;BME280;8731;50.364;8.958;2023-02-21T04:55:14;100512.91;;;8.01;87.42
17230;BME280;8731;50.364;8.958;2023-02-21T04:59:37;100507.25;;;8.04;87.80
17230;BME280;8731;50.364;8.958;2023-02-21T05:04:00;100509.97;;;8.06;87.18
17230;BME280;8731;50.364;8.958;2023-02-21T05:08:23;100502.53;;;8.07;87.34
17230;BME280;8731;50.364;8.958;2023-02-21T05:12:45;100502.88;;;8.10;87.34
17230;BME280;8731;50.364;8.958;2023-02-21T05:17:09;100492.72;;;8.10;87.49
17230;BME280;8731;50.364;8.958;2023-02-21T05:21:33;100478.41;;;8.11;87.19
17230;BME280;8731;50.364;8.958;2023-02-21T05:25:58;100486.91;;;8.11;87.65
17230;BME280;8731;50.364;8.958;2023-02-21T05:30:22;100486.00;;;8.11;87.65
17230;BME280;8731;50.364;8.958;2023-02-21T05:34:45;100489.19;;;8.17;87.50
17230;BME280;8731;50.364;8.958;2023-02-21T05:39:08;100471.94;;;8.06;88.52
17230;BME280;8731;50.364;8.958;2023-02-21T05:43:31;100472.59;;;8.12;88.01
17230;BME280;8731;50.364;8.958;2023-02-21T05:47:53;100468.25;;;8.11;87.99
17230;BME280;8731;50.364;8.958;2023-02-21T05:52:20;100477.66;;;8.12;88.32
17230;BME280;8731;50.364;8.958;2023-02-21T05:56:44;100475.88;;;8.11;88.21
17230;BME280;8731;50.364;8.958;2023-02-21T06:01:08;100474.06;;;8.10;88.48
17230;BME280;8731;50.364;8.958;2023-02-21T06:05:31;100477.66;;;8.12;88.17
17230;BME280;8731;50.364;8.958;2023-02-21T06:09:54;100470.94;;;7.96;88.82
17230;BME280;8731;50.364;8.958;2023-02-21T06:14:18;100476.56;;;7.78;87.76
17230;BME280;8731;50.364;8.958;2023-02-21T06:18:41;100482.69;;;7.80;88.32
17230;BME280;8731;50.364;8.958;2023-02-21T06:23:03;100479.84;;;7.77;89.99
17230;BME280;8731;50.364;8.958;2023-02-21T06:27:26;100485.00;;;7.86;89.15
17230;BME280;8731;50.364;8.958;2023-02-21T06:31:49;100494.66;;;7.81;89.26
17230;BME280;8731;50.364;8.958;2023-02-21T06:36:19;100492.47;;;7.84;89.98
17230;BME280;8731;50.364;8.958;2023-02-21T06:40:43;100489.34;;;7.87;89.13
17230;BME280;8731;50.364;8.958;2023-02-21T06:45:07;100494.16;;;7.92;89.04
17230;BME280;8731;50.364;8.958;2023-02-21T06:49:29;100483.09;;;7.76;89.86
17230;BME280;8731;50.364;8.958;2023-02-21T06:53:52;100494.25;;;7.85;89.52
17230;BME280;8731;50.364;8.958;2023-02-21T06:58:14;100495.03;;;7.77;89.86
17230;BME280;8731;50.364;8.958;2023-02-21T07:02:37;100497.28;;;7.90;89.79
17230;BME280;8731;50.364;8.958;2023-02-21T07:07:00;100502.84;;;7.94;89.23
17230;BME280;8731;50.364;8.958;2023-02-21T07:11:22;100490.81;;;8.00;89.00
17230;BME280;8731;50.364;8.958;2023-02-21T07:15:44;100501.63;;;8.07;88.66
17230;BME280;8731;50.364;8.958;2023-02-21T07:20:09;100505.41;;;8.10;88.48
17230;BME280;8731;50.364;8.958;2023-02-21T07:24:31;100489.94;;;8.16;88.71
17230;BME280;8731;50.364;8.958;2023-02-21T07:28:53;100479.22;;;8.18;88.75
17230;BME280;8731;50.364;8.958;2023-02-21T07:33:16;100486.16;;;8.28;88.85
17230;BME280;8731;50.364;8.958;2023-02-21T07:37:39;100475.34;;;8.22;88.65
17230;BME280;8731;50.364;8.958;2023-02-21T07:42:02;100472.81;;;8.22;89.19
17230;BME280;8731;50.364;8.958;2023-02-21T07:46:26;100469.72;;;8.40;88.96
17230;BME280;8731;50.364;8.958;2023-02-21T07:50:48;100473.38;;;8.51;88.63
17230;BME280;8731;50.364;8.958;2023-02-21T07:55:13;100483.50;;;8.82;89.49
17230;BME280;8731;50.364;8.958;2023-02-21T07:59:35;100489.22;;;8.73;89.04
17230;BME280;8731;50.364;8.958;2023-02-21T08:03:58;100480.78;;;8.81;87.90
17230;BME280;8731;50.364;8.958;2023-02-21T08:08:20;100481.69;;;9.06;86.99
17230;BME280;8731;50.364;8.958;2023-02-21T08:12:44;100475.56;;;9.37;85.75
17230;BME280;8731;50.364;8.958;2023-02-21T08:17:06;100484.97;;;9.71;84.09
17230;BME280;8731;50.364;8.958;2023-02-21T08:21:28;100481.72;;;9.89;83.54
17230;BME280;8731;50.364;8.958;2023-02-21T08:25:50;100481.44;;;9.95;83.03
17230;BME280;8731;50.364;8.958;2023-02-21T08:30:17;100485.16;;;9.90;82.07
17230;BME280;8731;50.364;8.958;2023-02-21T08:34:39;100489.97;;;10.12;82.07
17230;BME280;8731;50.364;8.958;2023-02-21T08:39:05;100483.47;;;10.23;81.91
17230;BME280;8731;50.364;8.958;2023-02-21T08:43:28;100477.63;;;10.24;80.52
17230;BME280;8731;50.364;8.958;2023-02-21T08:47:53;100488.84;;;10.26;80.69
17230;BME280;8731;50.364;8.958;2023-02-21T08:52:16;100500.75;;;10.10;80.62
17230;BME280;8731;50.364;8.958;2023-02-21T08:56:40;100496.53;;;9.93;79.91
17230;BME280;8731;50.364;8.958;2023-02-21T09:01:02;100495.97;;;10.04;80.13
17230;BME280;8731;50.364;8.958;2023-02-21T09:05:28;100506.75;;;10.10;80.90
17230;BME280;8731;50.364;8.958;2023-02-21T09:09:51;100504.63;;;9.98;80.88
17230;BME280;8731;50.364;8.958;2023-02-21T09:14:14;100494.88;;;9.85;81.12
17230;BME280;8731;50.364;8.958;2023-02-21T09:18:37;100486.94;;;9.91;80.22
17230;BME280;8731;50.364;8.958;2023-02-21T09:23:00;100492.50;;;9.95;79.82
17230;BME280;8731;50.364;8.958;2023-02-21T09:27:23;100488.78;;;10.00;80.62
17230;BME280;8731;50.364;8.958;2023-02-21T09:31:55;100482.91;;;9.84;79.87
17230;BME280;8731;50.364;8.958;2023-02-21T09:36:18;100485.34;;;10.00;80.78
17230;BME280;8731;50.364;8.958;2023-02-21T09:40:47;100492.97;;;10.00;80.87
17230;BME280;8731;50.364;8.958;2023-02-21T09:45:13;100494.63;;;10.08;79.85
17230;BME280;8731;50.364;8.958;2023-02-21T09:49:40;100494.63;;;10.16;80.12
17230;BME280;8731;50.364;8.958;2023-02-21T09:54:04;100488.94;;;10.10;80.31
17230;BME280;8731;50.364;8.958;2023-02-21T09:58:29;100489.22;;;10.13;80.09
17230;BME280;8731;50.364;8.958;2023-02-21T10:02:58;100484.78;;;10.20;80.00
17230;BME280;8731;50.364;8.958;2023-02-21T10:07:37;100487.63;;;10.40;80.44
17230;BME280;8731;50.364;8.958;2023-02-21T10:12:11;100486.44;;;10.36;79.75
17230;BME280;8731;50.364;8.958;2023-02-21T10:16:47;100481.97;;;10.42;79.93
17230;BME280;8731;50.364;8.958;2023-02-21T10:21:26;100484.94;;;10.38;79.30
17230;BME280;8731;50.364;8.958;2023-02-21T10:25:53;100485.41;;;10.52;79.55
17230;BME280;8731;50.364;8.958;2023-02-21T10:30:28;100489.13;;;10.64;79.46
17230;BME280;8731;50.364;8.958;2023-02-21T10:34:56;100494.25;;;10.72;78.93
17230;BME280;8731;50.364;8.958;2023-02-21T10:39:21;100492.13;;;10.77;79.11
17230;BME280;8731;50.364;8.958;2023-02-21T10:43:52;100489.16;;;10.55;78.45
17230;BME280;8731;50.364;8.958;2023-02-21T10:48:23;100491.22;;;10.76;78.58
17230;BME280;8731;50.364;8.958;2023-02-21T10:52:51;100501.69;;;10.88;78.07
17230;BME280;8731;50.364;8.958;2023-02-21T10:57:15;100496.31;;;10.76;78.20
17230;BME280;8731;50.364;8.958;2023-02-21T11:01:41;100501.88;;;10.47;79.42
17230;BME280;8731;50.364;8.958;2023-02-21T11:06:05;100492.16;;;10.68;78.57
17230;BME280;8731;50.364;8.958;2023-02-21T11:10:33;100479.84;;;10.82;79.19
17230;BME280;8731;50.364;8.958;2023-02-21T11:15:14;100477.47;;;10.74;79.35
17230;BME280;8731;50.364;8.958;2023-02-21T11:19:47;100477.91;;;10.70;79.03
17230;BME280;8731;50.364;8.958;2023-02-21T11:24:11;100470.97;;;10.87;78.59
17230;BME280;8731;50.364;8.958;2023-02-21T11:28:37;100462.22;;;11.11;78.09
17230;BME280;8731;50.364;8.958;2023-02-21T11:33:04;100461.53;;;10.94;77.62
17230;BME280;8731;50.364;8.958;2023-02-21T11:37:28;100460.44;;;11.18;77.36
17230;BME280;8731;50.364;8.958;2023-02-21T11:41:52;100454.09;;;11.23;77.77
17230;BME280;8731;50.364;8.958;2023-02-21T11:46:22;100449.56;;;11.38;78.29
17230;BME280;8731;50.364;8.958;2023-02-21T11:50:53;100434.94;;;11.10;79.10
17230;BME280;8731;50.364;8.958;2023-02-21T11:55:17;100426.22;;;11.52;78.70
17230;BME280;8731;50.364;8.958;2023-02-21T11:59:45;100417.97;;;11.55;78.10
17230;BME280;8731;50.364;8.958;2023-02-21T12:04:29;100406.16;;;11.47;77.89
17230;BME280;8731;50.364;8.958;2023-02-21T12:09:09;100410.06;;;11.98;77.25
17230;BME280;8731;50.364;8.958;2023-02-21T12:13:40;100405.25;;;12.20;75.96
17230;BME280;8731;50.364;8.958;2023-02-21T12:18:24;100391.69;;;12.40;74.88
17230;BME280;8731;50.364;8.958;2023-02-21T12:23:14;100381.13;;;12.74;74.71
17230;BME280;8731;50.364;8.958;2023-02-21T12:27:47;100369.03;;;13.31;73.52
17230;BME280;8731;50.364;8.958;2023-02-21T12:32:36;100363.53;;;13.98;71.09
17230;BME280;8731;50.364;8.958;2023-02-21T12:37:19;100358.25;;;14.59;68.71
17230;BME280;8731;50.364;8.958;2023-02-21T12:41:59;100334.09;;;14.99;69.41
17230;BME280;8731;50.364;8.958;2023-02-21T12:46:34;100319.75;;;15.68;66.90
17230;BME280;8731;50.364;8.958;2023-02-21T12:51:05;100314.84;;;16.06;65.00
17230;BME280;8731;50.364;8.958;2023-02-21T12:55:34;100305.78;;;16.95;64.63
17230;BME280;8731;50.364;8.958;2023-02-21T13:00:04;100303.19;;;17.06;66.33
17230;BME280;8731;50.364;8.958;2023-02-21T13:04:43;100288.16;;;18.15;61.59
17230;BME280;8731;50.364;8.958;2023-02-21T13:09:14;100288.66;;;18.23;57.39
17230;BME280;8731;50.364;8.958;2023-02-21T13:13:42;100281.75;;;17.57;57.01
17230;BME280;8731;50.364;8.958;2023-02-21T13:18:08;100268.28;;;18.54;64.81
17230;BME280;8731;50.364;8.958;2023-02-21T13:28:32;100252.53;;;18.49;57.80
17230;BME280;8731;50.364;8.958;2023-02-21T13:32:57;100242.50;;;18.40;56.80
17230;BME280;8731;50.364;8.958;2023-02-21T13:37:24;100237.94;;;18.50;60.08
17230;BME280;8731;50.364;8.958;2023-02-21T13:41:51;100232.41;;;17.76;67.35
17230;BME280;8731;50.364;8.958;2023-02-21T13:51:44;100220.59;;;16.90;59.70
17230;BME280;8731;50.364;8.958;2023-02-21T13:56:17;100219.84;;;16.79;60.05
17230;BME280;8731;50.364;8.958;2023-02-21T14:00:48;100214.56;;;16.53;63.97
17230;BME280;8731;50.364;8.958;2023-02-21T14:05:14;100215.47;;;15.47;63.13
17230;BME280;8731;50.364;8.958;2023-02-21T14:09:39;100207.09;;;15.49;64.25
17230;BME280;8731;50.364;8.958;2023-02-21T14:14:04;100195.72;;;15.46;64.01
17230;BME280;8731;50.364;8.958;2023-02-21T14:18:42;100193.38;;;15.60;65.40
17230;BME280;8731;50.364;8.958;2023-02-21T14:23:13;100186.25;;;15.68;64.16
17230;BME280;8731;50.364;8.958;2023-02-21T14:27:37;100196.13;;;14.71;65.04
17230;BME280;8731;50.364;8.958;2023-02-21T14:32:33;100185.09;;;14.84;65.43
17230;BME280;8731;50.364;8.958;2023-02-21T14:37:01;100178.28;;;15.18;67.29
17230;BME280;8731;50.364;8.958;2023-02-21T14:41:50;100171.91;;;15.01;67.15
17230;BME280;8731;50.364;8.958;2023-02-21T14:46:58;100177.16;;;14.69;68.09
17230;BME280;8731;50.364;8.958;2023-02-21T14:52:04;100168.69;;;14.70;68.11
17230;BME280;8731;50.364;8.958;2023-02-21T14:57:03;100162.03;;;14.72;68.21
17230;BME280;8731;50.364;8.958;2023-02-21T15:01:55;100164.88;;;14.65;67.54
17230;BME280;8731;50.364;8.958;2023-02-21T15:06:23;100162.59;;;14.47;68.47
17230;BME280;8731;50.364;8.958;2023-02-21T15:10:49;100157.47;;;14.47;68.01
17230;BME280;8731;50.364;8.958;2023-02-21T15:15:20;100160.66;;;14.22;68.20
17230;BME280;8731;50.364;8.958;2023-02-21T15:19:45;100157.84;;;14.41;68.63
17230;BME280;8731;50.364;8.958;2023-02-21T15:24:11;100147.34;;;14.48;68.82
17230;BME280;8731;50.364;8.958;2023-02-21T15:28:34;100145.13;;;14.42;69.39
17230;BME280;8731;50.364;8.958;2023-02-21T15:33:05;100149.25;;;14.51;69.36
17230;BME280;8731;50.364;8.958;2023-02-21T15:37:34;100142.00;;;14.45;69.61
17230;BME280;8731;50.364;8.958;2023-02-21T15:42:01;100143.25;;;14.62;69.33
17230;BME280;8731;50.364;8.958;2023-02-21T15:46:31;100137.97;;;14.27;69.50
17230;BME280;8731;50.364;8.958;2023-02-21T15:51:04;100128.84;;;14.30;69.28
17230;BME280;8731;50.364;8.958;2023-02-21T15:55:30;100127.19;;;14.31;69.95
17230;BME280;8731;50.364;8.958;2023-02-21T16:00:16;100130.06;;;14.24;70.54
17230;BME280;8731;50.364;8.958;2023-02-21T16:04:45;100118.59;;;14.30;70.38
17230;BME280;8731;50.364;8.958;2023-02-21T16:09:24;100113.78;;;14.23;70.57
17230;BME280;8731;50.364;8.958;2023-02-21T16:13:49;100112.13;;;14.24;70.56
17230;BME280;8731;50.364;8.958;2023-02-21T16:18:16;100106.03;;;14.11;71.23
17230;BME280;8731;50.364;8.958;2023-02-21T16:22:40;100107.44;;;13.96;71.45
17230;BME280;8731;50.364;8.958;2023-02-21T16:27:10;100109.81;;;14.05;71.33
17230;BME280;8731;50.364;8.958;2023-02-21T16:31:35;100111.13;;;14.00;71.29
17230;BME280;8731;50.364;8.958;2023-02-21T16:35:59;100106.00;;;14.00;70.83
17230;BME280;8731;50.364;8.958;2023-02-21T16:40:30;100111.28;;;13.91;70.81
17230;BME280;8731;50.364;8.958;2023-02-21T16:44:55;100109.03;;;13.84;71.07
17230;BME280;8731;50.364;8.958;2023-02-21T16:49:17;100110.75;;;13.73;71.60
17230;BME280;8731;50.364;8.958;2023-02-21T16:53:39;100113.75;;;13.58;71.89
17230;BME280;8731;50.364;8.958;2023-02-21T16:58:04;100115.19;;;13.54;72.12
17230;BME280;8731;50.364;8.958;2023-02-21T17:02:30;100114.94;;;13.51;71.55
17230;BME280;8731;50.364;8.958;2023-02-21T17:06:54;100120.47;;;13.35;72.00
17230;BME280;8731;50.364;8.958;2023-02-21T17:11:18;100122.91;;;13.24;72.34
17230;BME280;8731;50.364;8.958;2023-02-21T17:15:40;100120.00;;;13.09;72.67
17230;BME280;8731;50.364;8.958;2023-02-21T17:20:05;100121.94;;;12.91;73.25
17230;BME280;8731;50.364;8.958;2023-02-21T17:24:28;100128.06;;;12.93;72.86
17230;BME280;8731;50.364;8.958;2023-02-21T17:28:50;100130.25;;;12.68;73.46
17230;BME280;8731;50.364;8.958;2023-02-21T17:33:13;100128.31;;;12.45;74.23
17230;BME280;8731;50.364;8.958;2023-02-21T17:37:37;100135.47;;;12.39;74.37
17230;BME280;8731;50.364;8.958;2023-02-21T17:41:59;100135.06;;;12.24;74.41
17230;BME280;8731;50.364;8.958;2023-02-21T17:46:21;100139.06;;;11.92;74.80
17230;BME280;8731;50.364;8.958;2023-02-21T17:50:45;100139.22;;;11.75;76.33
17230;BME280;8731;50.364;8.958;2023-02-21T17:55:11;100145.91;;;11.83;74.99
17230;BME280;8731;50.364;8.958;2023-02-21T17:59:38;100150.19;;;11.74;74.82
17230;BME280;8731;50.364;8.958;2023-02-21T18:04:00;100156.47;;;11.58;75.26
17230;BME280;8731;50.364;8.958;2023-02-21T18:08:23;100155.41;;;11.46;75.17
17230;BME280;8731;50.364;8.958;2023-02-21T18:12:46;100156.09;;;11.35;76.49
17230;BME280;8731;50.364;8.958;2023-02-21T18:17:09;100162.53;;;11.21;76.05
17230;BME280;8731;50.364;8.958;2023-02-21T18:21:34;100166.81;;;11.12;76.66
17230;BME280;8731;50.364;8.958;2023-02-21T18:26:01;100156.66;;;11.03;76.38
17230;BME280;8731;50.364;8.958;2023-02-21T18:30:25;100159.16;;;10.93;76.12
17230;BME280;8731;50.364;8.958;2023-02-21T18:34:48;100165.53;;;10.80;76.54
17230;BME280;8731;50.364;8.958;2023-02-21T18:39:10;100163.81;;;10.70;76.90
17230;BME280;8731;50.364;8.958;2023-02-21T18:43:34;100164.25;;;10.47;77.32
17230;BME280;8731;50.364;8.958;2023-02-21T18:47:59;100164.31;;;10.30;77.36
17230;BME280;8731;50.364;8.958;2023-02-21T18:52:22;100169.13;;;10.18;77.67
17230;BME280;8731;50.364;8.958;2023-02-21T18:56:45;100161.06;;;10.22;77.35
17230;BME280;8731;50.364;8.958;2023-02-21T19:01:12;100164.66;;;10.07;78.28
17230;BME280;8731;50.364;8.958;2023-02-21T19:05:36;100162.03;;;9.97;78.61
17230;BME280;8731;50.364;8.958;2023-02-21T19:09:59;100158.78;;;9.80;78.59
17230;BME280;8731;50.364;8.958;2023-02-21T19:14:21;100155.38;;;9.71;78.78
17230;BME280;8731;50.364;8.958;2023-02-21T19:18:43;100148.63;;;9.63;78.75
17230;BME280;8731;50.364;8.958;2023-02-21T19:23:08;100147.03;;;9.55;79.39
17230;BME280;8731;50.364;8.958;2023-02-21T19:27:31;100150.75;;;9.41;79.42
17230;BME280;8731;50.364;8.958;2023-02-21T19:31:54;100155.56;;;9.30;79.68
17230;BME280;8731;50.364;8.958;2023-02-21T19:36:19;100154.53;;;9.02;80.69
17230;BME280;8731;50.364;8.958;2023-02-21T19:40:43;100153.19;;;9.05;79.84
17230;BME280;8731;50.364;8.958;2023-02-21T19:45:07;100149.44;;;8.93;79.88
17230;BME280;8731;50.364;8.958;2023-02-21T19:49:29;100159.59;;;8.76;80.22
17230;BME280;8731;50.364;8.958;2023-02-21T19:53:52;100152.09;;;8.69;80.27
17230;BME280;8731;50.364;8.958;2023-02-21T19:58:16;100151.03;;;8.58;80.50
17230;BME280;8731;50.364;8.958;2023-02-21T20:02:39;100151.63;;;8.55;80.44
17230;BME280;8731;50.364;8.958;2023-02-21T20:07:03;100144.13;;;8.40;80.83
17230;BME280;8731;50.364;8.958;2023-02-21T20:11:25;100144.41;;;8.34;81.23
17230;BME280;8731;50.364;8.958;2023-02-21T20:15:49;100156.41;;;8.28;81.16
17230;BME280;8731;50.364;8.958;2023-02-21T20:20:11;100158.03;;;8.19;80.96
17230;BME280;8731;50.364;8.958;2023-02-21T20:24:35;100157.13;;;8.18;81.23
17230;BME280;8731;50.364;8.958;2023-02-21T20:28:57;100159.81;;;8.11;81.16
17230;BME280;8731;50.364;8.958;2023-02-21T20:33:21;100168.09;;;8.01;82.09
17230;BME280;8731;50.364;8.958;2023-02-21T20:37:44;100167.13;;;7.84;82.91
17230;BME280;8731;50.364;8.958;2023-02-21T20:42:07;100170.25;;;7.81;82.81
17230;BME280;8731;50.364;8.958;2023-02-21T20:46:29;100161.91;;;7.58;83.27
17230;BME280;8731;50.364;8.958;2023-02-21T20:50:55;100161.81;;;7.49;83.74
17230;BME280;8731;50.364;8.958;2023-02-21T20:55:19;100158.41;;;7.49;83.33
17230;BME280;8731;50.364;8.958;2023-02-21T20:59:42;100157.47;;;7.24;83.65
17230;BME280;8731;50.364;8.958;2023-02-21T21:04:05;100161.97;;;7.26;83.56
17230;BME280;8731;50.364;8.958;2023-02-21T21:08:29;100151.84;;;7.26;83.17
17230;BME280;8731;50.364;8.958;2023-02-21T21:12:51;100161.00;;;7.17;83.45
17230;BME280;8731;50.364;8.958;2023-02-21T21:17:15;100158.56;;;7.10;83.39
17230;BME280;8731;50.364;8.958;2023-02-21T21:21:38;100156.13;;;7.03;83.80
17230;BME280;8731;50.364;8.958;2023-02-21T21:26:05;100158.59;;;6.94;84.46
17230;BME280;8731;50.364;8.958;2023-02-21T21:30:28;100153.41;;;6.86;84.38
17230;BME280;8731;50.364;8.958;2023-02-21T21:34:54;100149.59;;;6.73;85.09
17230;BME280;8731;50.364;8.958;2023-02-21T21:39:18;100143.81;;;6.74;84.48
17230;BME280;8731;50.364;8.958;2023-02-21T21:43:44;100141.53;;;6.69;84.83
17230;BME280;8731;50.364;8.958;2023-02-21T21:48:07;100149.00;;;6.60;84.91
17230;BME280;8731;50.364;8.958;2023-02-21T21:52:30;100147.63;;;6.55;85.07
17230;BME280;8731;50.364;8.958;2023-02-21T21:56:53;100160.34;;;6.48;84.95
17230;BME280;8731;50.364;8.958;2023-02-21T22:01:19;100144.84;;;6.45;84.59
17230;BME280;8731;50.364;8.958;2023-02-21T22:05:41;100148.44;;;6.47;84.26
17230;BME280;8731;50.364;8.958;2023-02-21T22:10:04;100146.47;;;6.44;83.95
17230;BME280;8731;50.364;8.958;2023-02-21T22:14:30;100144.38;;;6.40;84.51
17230;BME280;8731;50.364;8.958;2023-02-21T22:18:54;100141.00;;;6.33;85.10
17230;BME280;8731;50.364;8.958;2023-02-21T22:23:17;100136.56;;;6.23;85.75
17230;BME280;8731;50.364;8.958;2023-02-21T22:27:41;100131.41;;;6.14;85.39
17230;BME280;8731;50.364;8.958;2023-02-21T22:32:04;100126.72;;;6.18;85.46
17230;BME280;8731;50.364;8.958;2023-02-21T22:36:30;100127.81;;;6.12;85.37
17230;BME280;8731;50.364;8.958;2023-02-21T22:40:56;100124.78;;;6.08;85.44
17230;BME280;8731;50.364;8.958;2023-02-21T22:45:20;100123.91;;;6.07;85.40
17230;BME280;8731;50.364;8.958;2023-02-21T22:49:44;100114.19;;;6.03;85.69
17230;BME280;8731;50.364;8.958;2023-02-21T22:54:10;100107.91;;;6.00;85.21
17230;BME280;8731;50.364;8.958;2023-02-21T22:58:33;100117.84;;;5.98;85.24
17230;BME280;8731;50.364;8.958;2023-02-21T23:02:55;100113.56;;;5.90;85.73
17230;BME280;8731;50.364;8.958;2023-02-21T23:07:18;100108.06;;;5.78;86.26
17230;BME280;8731;50.364;8.958;2023-02-21T23:11:49;100108.63;;;5.76;85.99
17230;BME280;8731;50.364;8.958;2023-02-21T23:16:17;100110.97;;;5.74;85.82
17230;BME280;8731;50.364;8.958;2023-02-21T23:20:41;100108.47;;;5.67;85.30
17230;BME280;8731;50.364;8.958;2023-02-21T23:25:04;100104.41;;;5.61;86.44
17230;BME280;8731;50.364;8.958;2023-02-21T23:29:40;100108.03;;;5.55;85.91
17230;BME280;8731;50.364;8.958;2023-02-21T23:34:03;100108.28;;;5.50;86.65
17230;BME280;8731;50.364;8.958;2023-02-21T23:38:26;100109.91;;;5.49;86.16
17230;BME280;8731;50.364;8.958;2023-02-21T23:42:50;100110.50;;;5.40;86.00
17230;BME280;8731;50.364;8.958;2023-02-21T23:47:15;100118.13;;;5.33;86.20
17230;BME280;8731;50.364;8.958;2023-02-21T23:51:37;100111.66;;;5.28;85.50
17230;BME280;8731;50.364;8.958;2023-02-21T23:56:01;100111.88;;;5.22;85.35
